Time;durP1;ratioP1;P1;durP2;ratioP2;P2;SDS_P1;SDS_P2;PMS_P1;PMS_P2;Temp;Humidity;BMP_temperature;BMP_pressure;BME280_temperature;BME280_humidity;BME280_pressure;Samples;Min_cycle;Max_cycle;Signal;HPM_P1;HPM_P2
2024/03/17 00:03:18;;;;;;;;;;;19.60;47.40;;;;;;8328811;28;19913;-58
2024/03/17 00:07:19;;;;;;;;;;;19.50;47.50;;;;;;8328606;28;20259;-59
2024/03/17 00:11:20;;;;;;;;;;;19.50;47.30;;;;;;8328742;28;19913;-59
2024/03/17 00:15:20;;;;;;;;;;;19.50;47.40;;;;;;8327860;28;19925;-59
2024/03/17 00:19:23;;;;;;;;;;;19.50;47.50;;;;;;8328269;28;20338;-59
2024/03/17 00:23:24;;;;;;;;;;;19.50;47.40;;;;;;8328307;28;19921;-59
2024/03/17 00:27:24;;;;;;;;;;;19.50;47.50;;;;;;8318212;28;19913;-63
2024/03/17 00:31:25;;;;;;;;;;;19.50;47.50;;;;;;8311359;28;20285;-58
2024/03/17 00:35:26;;;;;;;;;;;19.50;47.60;;;;;;8335380;28;19917;-58
2024/03/17 00:39:27;;;;;;;;;;;19.60;47.40;;;;;;8314301;28;20288;-57
2024/03/17 00:43:27;;;;;;;;;;;19.60;47.60;;;;;;8314110;27;20290;-58
2024/03/17 00:47:29;;;;;;;;;;;19.60;47.50;;;;;;8326516;28;19913;-58
2024/03/17 00:51:29;;;;;;;;;;;19.60;47.60;;;;;;8327533;28;19909;-59
2024/03/17 00:55:30;;;;;;;;;;;19.60;47.70;;;;;;8326016;28;19924;-59
2024/03/17 00:59:31;;;;;;;;;;;19.60;47.60;;;;;;8303235;28;20329;-58
2024/03/17 01:03:31;;;;;;;;;;;19.60;47.60;;;;;;8315768;28;20328;-59
2024/03/17 01:07:33;;;;;;;;;;;19.60;47.50;;;;;;8327121;28;19920;-59
2024/03/17 01:11:33;;;;;;;;;;;19.50;47.40;;;;;;8370952;27;19907;-60
2024/03/17 01:15:37;;;;;;;;;;;19.60;47.40;;;;;;8418282;27;20390;-59
2024/03/17 01:19:38;;;;;;;;;;;19.60;47.50;;;;;;8398131;27;19956;-61
2024/03/17 01:23:39;;;;;;;;;;;19.60;47.50;;;;;;8311051;27;20370;-60
2024/03/17 01:27:39;;;;;;;;;;;19.60;47.40;;;;;;8352301;27;19908;-59
2024/03/17 01:31:40;;;;;;;;;;;19.60;47.40;;;;;;8331175;27;19921;-59
2024/03/17 01:35:40;;;;;;;;;;;19.60;47.90;;;;;;8335438;28;20353;-58
2024/03/17 01:39:41;;;;;;;;;;;19.60;47.50;;;;;;8453490;27;20010;-59
2024/03/17 01:43:41;;;;;;;;;;;19.60;47.40;;;;;;8415089;27;19964;-60
2024/03/17 01:47:42;;;;;;;;;;;19.60;47.50;;;;;;8325017;28;20332;-59
2024/03/17 01:51:44;;;;;;;;;;;19.60;47.50;;;;;;8326097;28;19916;-59
2024/03/17 01:55:46;;;;;;;;;;;19.60;47.60;;;;;;8325847;28;20420;-60
2024/03/17 01:59:47;;;;;;;;;;;19.60;47.50;;;;;;8325965;28;19940;-61
2024/03/17 02:03:47;;;;;;;;;;;19.60;47.40;;;;;;8325512;28;20001;-60
2024/03/17 02:07:48;;;;;;;;;;;19.50;47.40;;;;;;8325463;28;20370;-59
2024/03/17 02:11:49;;;;;;;;;;;19.60;47.60;;;;;;8327414;28;19913;-60
2024/03/17 02:15:49;;;;;;;;;;;19.50;47.50;;;;;;8325155;28;19926;-60
2024/03/17 02:19:52;;;;;;;;;;;19.60;47.60;;;;;;8398754;28;20255;-59
2024/03/17 02:23:53;;;;;;;;;;;19.60;47.70;;;;;;8497507;27;19935;-56
2024/03/17 02:27:53;;;;;;;;;;;19.50;47.60;;;;;;8496644;27;19915;-57
2024/03/17 02:31:54;;;;;;;;;;;19.50;47.60;;;;;;8319040;27;19913;-57
2024/03/17 02:35:54;;;;;;;;;;;19.50;47.60;;;;;;8334902;28;20011;-57
2024/03/17 02:39:55;;;;;;;;;;;19.50;47.60;;;;;;8458288;28;19912;-58
2024/03/17 02:43:55;;;;;;;;;;;19.50;47.60;;;;;;8384646;27;20325;-57
2024/03/17 02:47:56;;;;;;;;;;;19.50;47.70;;;;;;8324124;28;20410;-57
2024/03/17 02:51:56;;;;;;;;;;;19.50;47.70;;;;;;8324516;28;20369;-57
2024/03/17 02:55:57;;;;;;;;;;;19.50;47.60;;;;;;8323598;28;20415;-56
2024/03/17 02:59:58;;;;;;;;;;;19.50;48.30;;;;;;8323760;28;19948;-55
2024/03/17 03:03:59;;;;;;;;;;;19.50;47.80;;;;;;8323711;28;19916;-56
2024/03/17 03:07:59;;;;;;;;;;;19.50;47.90;;;;;;8323543;28;19999;-57
2024/03/17 03:12:02;;;;;;;;;;;19.50;47.90;;;;;;8352224;28;19911;-57
2024/03/17 03:16:03;;;;;;;;;;;19.50;47.90;;;;;;8495436;27;19920;-57
2024/03/17 03:20:05;;;;;;;;;;;19.50;47.70;;;;;;8502606;27;19960;-57
2024/03/17 03:24:06;;;;;;;;;;;19.50;47.70;;;;;;8501951;27;19912;-56
2024/03/17 03:28:06;;;;;;;;;;;19.50;47.80;;;;;;8498433;27;20319;-57
2024/03/17 03:32:07;;;;;;;;;;;19.50;47.80;;;;;;8314104;28;20402;-57
2024/03/17 03:36:09;;;;;;;;;;;19.50;47.70;;;;;;8336918;28;19920;-59
2024/03/17 03:40:16;;;;;;;;;;;19.40;47.70;;;;;;8468131;27;19964;-60
2024/03/17 03:44:16;;;;;;;;;;;19.40;47.60;;;;;;8370843;27;19956;-59
2024/03/17 03:48:18;;;;;;;;;;;19.40;47.00;;;;;;8326278;28;20393;-60
2024/03/17 03:52:18;;;;;;;;;;;19.50;46.50;;;;;;8326108;28;20326;-59
2024/03/17 03:56:20;;;;;;;;;;;19.50;46.20;;;;;;8325753;28;19917;-60
2024/03/17 04:00:21;;;;;;;;;;;19.50;45.80;;;;;;8325984;28;20287;-60
2024/03/17 04:04:21;;;;;;;;;;;19.60;45.60;;;;;;8325996;28;19909;-60
2024/03/17 04:08:24;;;;;;;;;;;19.60;45.50;;;;;;8325748;28;20012;-60
2024/03/17 04:12:24;;;;;;;;;;;19.60;45.30;;;;;;8309928;27;19944;-58
2024/03/17 04:16:25;;;;;;;;;;;19.60;45.20;;;;;;8324567;28;19936;-59
2024/03/17 04:20:26;;;;;;;;;;;19.50;45.70;;;;;;8325369;28;20363;-58
2024/03/17 04:24:27;;;;;;;;;;;19.40;46.60;;;;;;8325550;28;19914;-59
2024/03/17 04:28:27;;;;;;;;;;;19.30;46.60;;;;;;8342808;27;20284;-58
2024/03/17 04:32:28;;;;;;;;;;;19.40;46.00;;;;;;8367485;27;20433;-59
2024/03/17 04:36:29;;;;;;;;;;;19.50;45.60;;;;;;8339847;28;19917;-60
2024/03/17 04:40:30;;;;;;;;;;;19.50;45.30;;;;;;8481478;27;19915;-60
2024/03/17 04:44:31;;;;;;;;;;;19.50;45.10;;;;;;8360294;27;19966;-59
2024/03/17 04:48:32;;;;;;;;;;;19.50;44.90;;;;;;8324914;28;20008;-60
2024/03/17 04:52:32;;;;;;;;;;;19.60;44.80;;;;;;8324633;28;19920;-59
2024/03/17 04:56:33;;;;;;;;;;;19.60;44.70;;;;;;8324737;28;19918;-59
2024/03/17 05:00:33;;;;;;;;;;;19.60;44.50;;;;;;8324527;28;20008;-59
2024/03/17 05:04:34;;;;;;;;;;;19.60;44.40;;;;;;8324092;28;19914;-58
2024/03/17 05:08:35;;;;;;;;;;;19.50;45.30;;;;;;8324638;28;19994;-58
2024/03/17 05:12:35;;;;;;;;;;;19.30;46.30;;;;;;8325927;28;19917;-59
2024/03/17 05:16:36;;;;;;;;;;;19.20;46.20;;;;;;8324034;28;19917;-59
2024/03/17 05:20:36;;;;;;;;;;;19.30;45.60;;;;;;8323924;28;20630;-57
2024/03/17 05:24:37;;;;;;;;;;;19.40;45.10;;;;;;8322752;28;19948;-59
2024/03/17 05:28:37;;;;;;;;;;;19.40;45.00;;;;;;8323805;28;20373;-59
2024/03/17 05:32:38;;;;;;;;;;;19.50;44.70;;;;;;8323698;28;19933;-59
2024/03/17 05:36:38;;;;;;;;;;;19.50;44.60;;;;;;8338063;28;19917;-59
2024/03/17 05:40:41;;;;;;;;;;;19.50;44.40;;;;;;8485872;27;19919;-59
2024/03/17 05:44:50;;;;;;;;;;;19.50;44.30;;;;;;8351081;27;19913;-58
2024/03/17 05:48:51;;;;;;;;;;;19.60;44.20;;;;;;8321908;28;19936;-59
2024/03/17 05:52:52;;;;;;;;;;;19.60;44.10;;;;;;8323219;28;19909;-60
2024/03/17 05:56:52;;;;;;;;;;;19.40;45.00;;;;;;8323267;28;19917;-59
2024/03/17 06:00:53;;;;;;;;;;;19.30;46.00;;;;;;8323099;28;19962;-60
2024/03/17 06:04:54;;;;;;;;;;;19.30;45.70;;;;;;8305290;28;19910;-60
2024/03/17 06:08:55;;;;;;;;;;;19.30;45.10;;;;;;8323047;28;19913;-59
2024/03/17 06:12:57;;;;;;;;;;;19.40;44.80;;;;;;8322728;28;19932;-59
2024/03/17 06:16:58;;;;;;;;;;;19.50;44.40;;;;;;8322553;28;19917;-59
2024/03/17 06:20:58;;;;;;;;;;;19.50;44.20;;;;;;8321508;28;19944;-59
2024/03/17 06:24:59;;;;;;;;;;;19.60;43.90;;;;;;8322317;28;19909;-59
2024/03/17 06:29:02;;;;;;;;;;;19.60;43.60;;;;;;8361477;28;19908;-59
2024/03/17 06:33:03;;;;;;;;;;;19.70;43.60;;;;;;8338232;28;19917;-60
2024/03/17 06:37:04;;;;;;;;;;;19.60;43.50;;;;;;8349728;28;19973;-59
2024/03/17 06:41:05;;;;;;;;;;;19.70;43.50;;;;;;8493270;28;19912;-58
2024/03/17 06:45:08;;;;;;;;;;;19.60;44.70;;;;;;8332791;28;19909;-58
2024/03/17 06:49:09;;;;;;;;;;;19.40;45.40;;;;;;8321317;28;20012;-59
2024/03/17 06:53:09;;;;;;;;;;;19.50;44.90;;;;;;8325530;28;19913;-60
2024/03/17 06:57:10;;;;;;;;;;;19.60;44.20;;;;;;8327576;28;20387;-60
2024/03/17 07:01:10;;;;;;;;;;;19.60;43.90;;;;;;8326237;28;19981;-59
2024/03/17 07:05:14;;;;;;;;;;;19.60;43.50;;;;;;8326275;28;19919;-59
2024/03/17 07:09:17;;;;;;;;;;;19.70;43.50;;;;;;8327382;28;19909;-60
2024/03/17 07:13:17;;;;;;;;;;;19.70;43.30;;;;;;8326095;28;19933;-58
2024/03/17 07:17:18;;;;;;;;;;;19.70;43.10;;;;;;8327023;28;19917;-58
2024/03/17 07:21:18;;;;;;;;;;;19.80;43.20;;;;;;8327116;28;20274;-59
2024/03/17 07:25:19;;;;;;;;;;;19.70;43.00;;;;;;8326858;28;20029;-59
2024/03/17 07:29:20;;;;;;;;;;;19.70;42.90;;;;;;8382261;27;20405;-59
2024/03/17 07:33:20;;;;;;;;;;;19.60;44.40;;;;;;8331778;27;19916;-59
2024/03/17 07:37:21;;;;;;;;;;;19.50;45.10;;;;;;8362884;27;19959;-59
2024/03/17 07:41:24;;;;;;;;;;;19.50;44.30;;;;;;8498217;27;19972;-59
2024/03/17 07:45:24;;;;;;;;;;;19.60;43.80;;;;;;8294538;28;19914;-59
2024/03/17 07:49:25;;;;;;;;;;;19.70;43.60;;;;;;8308815;28;19914;-60
2024/03/17 07:53:26;;;;;;;;;;;19.70;43.40;;;;;;8294464;28;19915;-60
2024/03/17 07:57:27;;;;;;;;;;;19.70;43.20;;;;;;8308885;28;19925;-59
2024/03/17 08:01:31;;;;;;;;;;;19.70;43.00;;;;;;8297953;28;20007;-59
2024/03/17 08:05:32;;;;;;;;;;;19.70;43.00;;;;;;8325537;28;19913;-59
2024/03/17 08:09:33;;;;;;;;;;;19.70;42.90;;;;;;8324709;28;19919;-60
2024/03/17 08:13:34;;;;;;;;;;;19.70;42.90;;;;;;8339890;27;19929;-59
2024/03/17 08:17:35;;;;;;;;;;;19.70;42.80;;;;;;8341234;28;20286;-59
2024/03/17 08:21:35;;;;;;;;;;;19.50;44.20;;;;;;8358445;28;19935;-58
2024/03/17 08:25:36;;;;;;;;;;;19.40;44.90;;;;;;8358013;28;20404;-58
2024/03/17 08:29:37;;;;;;;;;;;19.40;44.20;;;;;;8419453;27;19915;-58
2024/03/17 08:33:37;;;;;;;;;;;19.50;43.70;;;;;;8358100;28;19942;-60
2024/03/17 08:37:38;;;;;;;;;;;19.60;43.40;;;;;;8406931;27;19915;-59
2024/03/17 08:41:39;;;;;;;;;;;19.60;43.10;;;;;;8519713;27;19911;-60
2024/03/17 08:45:40;;;;;;;;;;;19.60;42.90;;;;;;8340112;28;19913;-59
2024/03/17 08:49:40;;;;;;;;;;;19.70;42.80;;;;;;8357550;28;19916;-59
2024/03/17 08:53:41;;;;;;;;;;;19.70;42.60;;;;;;8357372;28;19961;-59
2024/03/17 08:57:42;;;;;;;;;;;19.70;42.50;;;;;;8357193;28;19966;-58
2024/03/17 09:01:43;;;;;;;;;;;19.70;43.00;;;;;;8357420;28;19913;-59
2024/03/17 09:05:44;;;;;;;;;;;19.70;42.50;;;;;;8357142;28;20271;-60
2024/03/17 09:09:48;;;;;;;;;;;19.50;44.00;;;;;;8339066;28;19913;-58
2024/03/17 09:13:49;;;;;;;;;;;19.50;44.40;;;;;;8358015;27;19931;-59
2024/03/17 09:17:49;;;;;;;;;;;19.60;43.60;;;;;;8356383;28;19913;-59
2024/03/17 09:21:50;;;;;;;;;;;19.60;43.10;;;;;;8356564;28;19916;-58
2024/03/17 09:25:54;;;;;;;;;;;19.60;42.90;;;;;;8356539;28;19920;-59
2024/03/17 09:29:55;;;;;;;;;;;19.70;42.70;;;;;;8417667;27;19956;-58
2024/03/17 09:33:55;;;;;;;;;;;19.70;42.50;;;;;;8356762;28;19920;-59
2024/03/17 09:37:56;;;;;;;;;;;19.70;42.40;;;;;;8383774;27;19911;-58
2024/03/17 09:41:58;;;;;;;;;;;19.70;42.30;;;;;;8503767;27;19913;-57
2024/03/17 09:45:58;;;;;;;;;;;19.70;42.30;;;;;;8355930;28;20053;-58
2024/03/17 09:49:59;;;;;;;;;;;19.70;42.20;;;;;;8356215;28;19913;-57
2024/03/17 09:53:59;;;;;;;;;;;19.70;42.50;;;;;;8338133;28;19913;-58
2024/03/17 09:58:00;;;;;;;;;;;19.50;43.90;;;;;;8338007;28;19920;-58
2024/03/17 10:02:02;;;;;;;;;;;19.40;44.20;;;;;;8356350;28;19913;-58
2024/03/17 10:06:02;;;;;;;;;;;19.50;43.50;;;;;;8355649;28;19962;-58
2024/03/17 10:10:21;;;;;;;;;;;19.60;43.00;;;;;;8355674;28;19913;-59
2024/03/17 10:14:22;;;;;;;;;;;19.60;42.70;;;;;;8357305;27;19932;-59
2024/03/17 10:18:23;;;;;;;;;;;19.70;42.60;;;;;;8337997;28;20421;-58
2024/03/17 10:22:23;;;;;;;;;;;19.60;42.30;;;;;;8355422;28;20003;-58
2024/03/17 10:26:24;;;;;;;;;;;19.70;42.30;;;;;;8337847;28;19958;-58
2024/03/17 10:30:30;;;;;;;;;;;19.70;42.30;;;;;;8416906;27;19912;-58
2024/03/17 10:34:37;;;;;;;;;;;19.70;42.20;;;;;;8340993;28;19912;-58
2024/03/17 10:38:40;;;;;;;;;;;19.60;42.20;;;;;;8429282;27;19911;-57
2024/03/17 10:42:41;;;;;;;;;;;19.60;42.70;;;;;;8470865;27;19915;-58
2024/03/17 10:46:42;;;;;;;;;;;19.40;43.90;;;;;;8321236;28;19920;-58
2024/03/17 10:50:46;;;;;;;;;;;19.40;43.80;;;;;;8337786;28;19916;-57
2024/03/17 10:54:48;;;;;;;;;;;19.50;43.20;;;;;;8320672;28;20381;-58
2024/03/17 10:58:52;;;;;;;;;;;19.60;42.80;;;;;;8354404;28;20373;-58
2024/03/17 11:02:55;;;;;;;;;;;19.60;42.50;;;;;;8354739;28;19909;-58
2024/03/17 11:06:58;;;;;;;;;;;19.60;42.20;;;;;;8354475;28;20301;-58
2024/03/17 11:10:59;;;;;;;;;;;19.70;42.20;;;;;;8354315;28;20368;-58
2024/03/17 11:15:18;;;;;;;;;;;19.70;42.00;;;;;;8355872;27;19921;-58
2024/03/17 11:19:18;;;;;;;;;;;19.70;41.90;;;;;;8353989;28;19913;-59
2024/03/17 11:23:26;;;;;;;;;;;19.70;42.30;;;;;;8354297;28;19913;-59
2024/03/17 11:27:39;;;;;;;;;;;19.70;41.80;;;;;;8353980;28;19916;-58
2024/03/17 11:31:42;;;;;;;;;;;19.60;42.90;;;;;;8397243;28;20382;-58
2024/03/17 11:35:42;;;;;;;;;;;19.40;43.80;;;;;;8363064;28;19913;-57
2024/03/17 11:40:03;;;;;;;;;;;19.50;43.40;;;;;;8488620;27;19911;-58
2024/03/17 11:44:12;;;;;;;;;;;19.50;42.70;;;;;;8396889;27;19920;-59
2024/03/17 11:48:14;;;;;;;;;;;19.60;42.40;;;;;;8359422;28;19909;-59
2024/03/17 11:52:15;;;;;;;;;;;19.60;42.20;;;;;;8359261;28;20362;-60
2024/03/17 11:56:22;;;;;;;;;;;19.60;42.00;;;;;;8358996;28;19913;-59
2024/03/17 12:00:24;;;;;;;;;;;19.70;41.90;;;;;;8359413;28;19919;-59
2024/03/17 12:04:25;;;;;;;;;;;19.70;41.80;;;;;;8341281;28;20382;-59
2024/03/17 12:08:25;;;;;;;;;;;19.70;41.70;;;;;;8358859;28;20323;-60
2024/03/17 12:12:35;;;;;;;;;;;19.70;41.60;;;;;;8359210;28;19913;-59
2024/03/17 12:16:36;;;;;;;;;;;19.70;41.50;;;;;;8325406;28;20028;-58
2024/03/17 12:20:38;;;;;;;;;;;19.60;43.00;;;;;;8358479;28;20294;-60
2024/03/17 12:24:38;;;;;;;;;;;19.40;43.60;;;;;;8358263;28;19923;-57
2024/03/17 12:28:39;;;;;;;;;;;19.50;43.00;;;;;;8384126;27;19954;-59
2024/03/17 12:32:40;;;;;;;;;;;19.60;42.50;;;;;;8393180;27;19961;-59
2024/03/17 12:36:40;;;;;;;;;;;19.60;42.20;;;;;;8372973;28;19924;-59
2024/03/17 12:40:41;;;;;;;;;;;19.60;41.90;;;;;;8524634;27;19990;-59
2024/03/17 12:44:49;;;;;;;;;;;19.70;41.90;;;;;;8385366;27;19920;-59
2024/03/17 12:48:57;;;;;;;;;;;19.60;41.70;;;;;;8339793;28;19913;-60
2024/03/17 12:52:58;;;;;;;;;;;19.70;41.70;;;;;;8358055;28;20410;-58
2024/03/17 13:01:27;;;;;;;;;;;19.70;41.50;;;;;;8357527;28;19909;-58
2024/03/17 13:05:29;;;;;;;;;;;19.60;41.90;;;;;;8357423;28;19917;-58
2024/03/17 13:09:29;;;;;;;;;;;19.50;43.20;;;;;;8357154;28;19957;-58
2024/03/17 13:13:30;;;;;;;;;;;19.40;43.40;;;;;;8358725;27;19932;-57
2024/03/17 13:17:33;;;;;;;;;;;19.50;42.70;;;;;;8356836;28;20015;-58
2024/03/17 13:21:34;;;;;;;;;;;19.50;42.30;;;;;;8357038;28;20361;-58
2024/03/17 13:25:36;;;;;;;;;;;19.60;42.10;;;;;;8356926;28;20115;-58
2024/03/17 13:29:37;;;;;;;;;;;19.60;41.80;;;;;;8399810;27;19955;-58
2024/03/17 13:33:38;;;;;;;;;;;19.60;41.70;;;;;;8356323;28;20008;-58
2024/03/17 13:37:38;;;;;;;;;;;19.70;41.60;;;;;;8406400;27;19922;-58
2024/03/17 13:41:39;;;;;;;;;;;19.70;41.50;;;;;;8516179;27;19907;-59
2024/03/17 13:45:40;;;;;;;;;;;19.60;41.40;;;;;;8356058;28;20302;-59
2024/03/17 13:49:41;;;;;;;;;;;19.70;41.40;;;;;;8355987;28;20370;-59
2024/03/17 13:53:44;;;;;;;;;;;19.60;42.00;;;;;;8355833;28;20325;-59
2024/03/17 13:57:45;;;;;;;;;;;19.40;43.20;;;;;;8355899;28;19913;-59
2024/03/17 14:01:46;;;;;;;;;;;19.40;43.30;;;;;;8355193;28;19913;-59
2024/03/17 14:05:47;;;;;;;;;;;19.40;42.50;;;;;;8355766;28;20001;-59
2024/03/17 14:09:47;;;;;;;;;;;19.50;42.10;;;;;;8356133;28;19957;-61
2024/03/17 14:13:48;;;;;;;;;;;19.60;41.90;;;;;;8357265;27;19936;-60
2024/03/17 14:17:50;;;;;;;;;;;19.60;41.70;;;;;;8355527;28;20011;-59
2024/03/17 14:21:51;;;;;;;;;;;19.60;41.60;;;;;;8355780;28;19916;-61
2024/03/17 14:25:51;;;;;;;;;;;19.60;41.40;;;;;;8355372;28;19913;-59
2024/03/17 14:29:52;;;;;;;;;;;19.70;41.40;;;;;;8398815;27;19962;-61
2024/03/17 14:33:53;;;;;;;;;;;19.70;41.40;;;;;;8355448;28;19924;-61
2024/03/17 14:37:53;;;;;;;;;;;19.60;41.30;;;;;;8414253;27;20335;-61
2024/03/17 14:41:54;;;;;;;;;;;19.60;42.10;;;;;;8504430;27;19913;-61
2024/03/17 14:45:54;;;;;;;;;;;19.40;43.00;;;;;;8354725;28;19909;-60
2024/03/17 14:49:55;;;;;;;;;;;19.40;43.00;;;;;;8354732;28;20417;-61
2024/03/17 14:53:56;;;;;;;;;;;19.50;42.40;;;;;;8355529;28;19917;-60
2024/03/17 14:57:57;;;;;;;;;;;19.50;42.00;;;;;;8354508;28;19924;-60
2024/03/17 15:01:58;;;;;;;;;;;19.60;41.70;;;;;;8354405;28;19913;-60
2024/03/17 15:05:58;;;;;;;;;;;19.60;41.60;;;;;;8354493;28;20239;-60
2024/03/17 15:09:59;;;;;;;;;;;19.60;41.30;;;;;;8336759;28;20351;-60
2024/03/17 15:13:59;;;;;;;;;;;19.60;41.20;;;;;;8358763;27;20293;-59
2024/03/17 15:18:00;;;;;;;;;;;19.70;41.20;;;;;;8360095;28;20281;-60
2024/03/17 15:22:00;;;;;;;;;;;19.70;41.20;;;;;;8359923;28;20323;-59
2024/03/17 15:26:08;;;;;;;;;;;19.70;41.60;;;;;;8359792;28;19909;-59
2024/03/17 15:30:14;;;;;;;;;;;19.60;42.50;;;;;;8410483;27;19925;-59
2024/03/17 15:34:15;;;;;;;;;;;19.30;43.40;;;;;;8330430;28;19928;-59
2024/03/17 15:38:15;;;;;;;;;;;19.40;43.40;;;;;;8403579;27;19953;-58
2024/03/17 15:42:17;;;;;;;;;;;19.50;42.80;;;;;;8343093;27;19927;-59
2024/03/17 15:46:18;;;;;;;;;;;19.60;42.40;;;;;;8367745;27;19955;-59
2024/03/17 15:50:18;;;;;;;;;;;19.70;42.30;;;;;;8326306;27;19960;-58
2024/03/17 15:54:19;;;;;;;;;;;19.70;42.20;;;;;;8380084;27;19922;-59
2024/03/17 15:58:20;;;;;;;;;;;19.80;42.10;;;;;;8380443;27;19917;-62
2024/03/17 16:02:21;;;;;;;;;;;19.80;41.90;;;;;;8371669;27;20314;-57
2024/03/17 16:06:22;;;;;;;;;;;19.90;42.20;;;;;;8362305;27;19948;-57
2024/03/17 16:10:23;;;;;;;;;;;19.80;42.80;;;;;;8341823;27;20267;-59
2024/03/17 16:14:24;;;;;;;;;;;19.70;44.20;;;;;;8428722;27;20432;-57
2024/03/17 16:18:25;;;;;;;;;;;19.70;46.10;;;;;;8513813;27;20382;-58
2024/03/17 16:22:27;;;;;;;;;;;19.70;46.30;;;;;;8509380;27;20023;-59
2024/03/17 16:26:28;;;;;;;;;;;19.70;46.60;;;;;;8490769;27;20341;-60
2024/03/17 16:30:28;;;;;;;;;;;19.80;45.60;;;;;;8496305;27;20284;-56
2024/03/17 16:34:29;;;;;;;;;;;19.90;45.10;;;;;;8507105;27;19919;-56
2024/03/17 16:38:31;;;;;;;;;;;19.90;45.10;;;;;;8498244;27;19920;-57
2024/03/17 16:42:31;;;;;;;;;;;20.00;44.80;;;;;;8500330;27;19954;-61
2024/03/17 16:46:50;;;;;;;;;;;20.00;44.60;;;;;;8510996;27;19911;-55
2024/03/17 16:50:51;;;;;;;;;;;20.10;44.50;;;;;;8512150;27;19907;-57
2024/03/17 16:54:52;;;;;;;;;;;20.10;44.20;;;;;;8511677;27;19916;-55
2024/03/17 16:58:53;;;;;;;;;;;20.10;44.50;;;;;;8514093;27;19982;-58
2024/03/17 17:02:54;;;;;;;;;;;20.10;44.70;;;;;;8512473;27;19936;-54
2024/03/17 17:06:56;;;;;;;;;;;20.00;45.60;;;;;;8510168;27;19923;-56
2024/03/17 17:10:56;;;;;;;;;;;19.90;46.20;;;;;;8493236;27;19990;-52
2024/03/17 17:14:57;;;;;;;;;;;20.00;45.80;;;;;;8423367;27;20382;-57
2024/03/17 17:19:03;;;;;;;;;;;20.10;45.10;;;;;;8400136;27;20303;-62
2024/03/17 17:23:04;;;;;;;;;;;20.20;45.40;;;;;;8376164;27;20022;-59
2024/03/17 17:27:08;;;;;;;;;;;20.30;45.10;;;;;;8377049;27;20026;-58
2024/03/17 17:31:09;;;;;;;;;;;20.40;45.30;;;;;;8456037;27;19946;-57
2024/03/17 17:35:10;;;;;;;;;;;20.40;45.30;;;;;;8422141;27;19922;-62
2024/03/17 17:39:12;;;;;;;;;;;20.40;44.30;;;;;;8426855;27;19963;-61
2024/03/17 17:43:13;;;;;;;;;;;20.40;44.50;;;;;;8396781;27;19913;-57
2024/03/17 17:47:13;;;;;;;;;;;20.50;43.80;;;;;;8357655;27;19966;-53
2024/03/17 17:51:15;;;;;;;;;;;20.50;43.90;;;;;;8358622;28;20385;-54
2024/03/17 17:55:16;;;;;;;;;;;20.50;44.90;;;;;;8463409;27;19985;-57
2024/03/17 17:59:16;;;;;;;;;;;20.40;45.30;;;;;;8358741;28;19913;-56
2024/03/17 18:03:17;;;;;;;;;;;20.40;44.90;;;;;;8368880;28;19913;-60
2024/03/17 18:07:18;;;;;;;;;;;20.40;44.80;;;;;;8376403;28;19963;-66
2024/03/17 18:11:19;;;;;;;;;;;20.50;44.60;;;;;;8327973;28;19944;-62
2024/03/17 18:15:21;;;;;;;;;;;20.50;44.50;;;;;;8348849;27;19925;-64
2024/03/17 18:19:22;;;;;;;;;;;20.60;44.20;;;;;;8392188;28;19908;-59
2024/03/17 18:23:23;;;;;;;;;;;20.70;44.10;;;;;;8391258;28;19919;-58
2024/03/17 18:27:24;;;;;;;;;;;20.70;43.80;;;;;;8391273;28;19919;-57
2024/03/17 18:31:24;;;;;;;;;;;20.60;43.60;;;;;;8374931;27;19908;-53
2024/03/17 18:35:25;;;;;;;;;;;20.60;44.00;;;;;;8402409;27;19983;-57
2024/03/17 18:39:26;;;;;;;;;;;20.60;43.90;;;;;;8411325;27;19917;-56
2024/03/17 18:43:27;;;;;;;;;;;20.50;44.90;;;;;;8416947;27;19911;-57
2024/03/17 18:47:27;;;;;;;;;;;20.40;45.80;;;;;;8469538;27;19948;-51
2024/03/17 18:51:28;;;;;;;;;;;20.50;46.00;;;;;;8409853;28;19913;-54
2024/03/17 18:55:28;;;;;;;;;;;20.50;46.10;;;;;;8416782;27;19916;-53
2024/03/17 18:59:29;;;;;;;;;;;20.50;45.30;;;;;;8411311;28;19924;-54
2024/03/17 19:03:30;;;;;;;;;;;20.60;44.70;;;;;;8418962;27;20428;-56
2024/03/17 19:07:32;;;;;;;;;;;20.70;45.50;;;;;;8412765;27;20090;-56
2024/03/17 19:11:32;;;;;;;;;;;20.70;44.90;;;;;;8418021;27;19912;-57
2024/03/17 19:15:33;;;;;;;;;;;20.70;45.00;;;;;;8471635;27;19962;-57
2024/03/17 19:19:34;;;;;;;;;;;20.70;44.20;;;;;;8457348;27;19998;-53
2024/03/17 19:23:35;;;;;;;;;;;20.70;44.10;;;;;;8415518;27;21066;-54
2024/03/17 19:27:37;;;;;;;;;;;20.70;44.30;;;;;;8411416;28;20356;-56
2024/03/17 19:31:37;;;;;;;;;;;20.60;45.00;;;;;;8405382;27;19967;-59
2024/03/17 19:35:40;;;;;;;;;;;20.60;46.00;;;;;;8456367;27;19916;-59
2024/03/17 19:39:40;;;;;;;;;;;20.70;45.20;;;;;;8394506;28;19909;-59
2024/03/17 19:43:41;;;;;;;;;;;20.80;44.70;;;;;;8414062;27;19912;-59
2024/03/17 19:47:42;;;;;;;;;;;20.80;44.70;;;;;;8427698;28;19919;-55
2024/03/17 19:51:43;;;;;;;;;;;20.90;44.30;;;;;;8429195;27;20011;-54
2024/03/17 19:55:50;;;;;;;;;;;20.90;44.60;;;;;;8393799;27;19917;-53
2024/03/17 19:59:51;;;;;;;;;;;20.90;45.00;;;;;;8408125;27;19909;-54
2024/03/17 20:03:52;;;;;;;;;;;20.90;45.00;;;;;;8414572;27;20485;-54
2024/03/17 20:07:53;;;;;;;;;;;20.90;45.50;;;;;;8466662;27;19920;-56
2024/03/17 20:11:53;;;;;;;;;;;20.90;44.40;;;;;;8476042;27;20381;-56
2024/03/17 20:15:54;;;;;;;;;;;20.90;45.40;;;;;;8359551;28;19986;-58
2024/03/17 20:19:55;;;;;;;;;;;20.80;45.70;;;;;;8327119;28;20285;-57
2024/03/17 20:23:57;;;;;;;;;;;20.70;46.30;;;;;;8365546;27;19912;-53
2024/03/17 20:27:58;;;;;;;;;;;20.70;46.10;;;;;;8515134;27;19970;-59
2024/03/17 20:31:58;;;;;;;;;;;20.80;46.30;;;;;;8434134;27;19909;-53
2024/03/17 20:36:02;;;;;;;;;;;20.80;45.70;;;;;;8358941;27;19951;-57
2024/03/17 20:40:03;;;;;;;;;;;20.80;44.80;;;;;;8379791;27;19916;-52
2024/03/17 20:44:03;;;;;;;;;;;20.70;44.40;;;;;;8358422;27;19965;-56
2024/03/17 20:48:04;;;;;;;;;;;20.50;44.10;;;;;;8349381;28;20251;-58
2024/03/17 20:52:05;;;;;;;;;;;20.50;44.30;;;;;;8327647;28;19913;-56
2024/03/17 20:56:06;;;;;;;;;;;20.40;44.10;;;;;;8358134;27;19917;-56
2024/03/17 21:00:17;;;;;;;;;;;20.40;43.90;;;;;;8409854;27;19917;-55
2024/03/17 21:04:17;;;;;;;;;;;20.40;44.40;;;;;;8387014;28;20401;-58
2024/03/17 21:08:18;;;;;;;;;;;20.30;45.20;;;;;;8437094;27;20434;-58
2024/03/17 21:12:19;;;;;;;;;;;20.20;45.10;;;;;;8509781;27;19912;-59
2024/03/17 21:16:19;;;;;;;;;;;20.10;44.50;;;;;;8355880;28;19921;-59
2024/03/17 21:20:23;;;;;;;;;;;20.20;43.90;;;;;;8355977;28;19961;-59
2024/03/17 21:24:23;;;;;;;;;;;20.20;43.60;;;;;;8356027;28;19912;-59
2024/03/17 21:28:24;;;;;;;;;;;20.30;43.40;;;;;;8356481;28;19913;-59
2024/03/17 21:32:25;;;;;;;;;;;20.20;43.20;;;;;;8332212;28;19914;-60
2024/03/17 21:36:25;;;;;;;;;;;20.20;43.00;;;;;;8338662;28;20286;-59
2024/03/17 21:40:26;;;;;;;;;;;20.20;43.00;;;;;;8356459;28;20133;-59
2024/03/17 21:44:28;;;;;;;;;;;20.20;42.90;;;;;;8357975;27;20011;-59
2024/03/17 21:48:29;;;;;;;;;;;20.20;42.80;;;;;;8356216;28;19954;-59
2024/03/17 21:52:29;;;;;;;;;;;20.10;43.80;;;;;;8356118;28;19913;-59
2024/03/17 21:56:30;;;;;;;;;;;19.80;44.90;;;;;;8338258;28;20008;-59
2024/03/17 22:00:31;;;;;;;;;;;19.90;44.60;;;;;;8355676;28;19913;-58
2024/03/17 22:04:32;;;;;;;;;;;19.90;44.00;;;;;;8385228;28;19920;-59
2024/03/17 22:08:32;;;;;;;;;;;20.00;43.70;;;;;;8388839;28;20345;-59
2024/03/17 22:12:33;;;;;;;;;;;20.00;43.40;;;;;;8379675;27;19913;-59
2024/03/17 22:16:34;;;;;;;;;;;20.00;43.20;;;;;;8388087;28;20377;-59
2024/03/17 22:20:34;;;;;;;;;;;20.00;43.10;;;;;;8388507;28;19912;-59
2024/03/17 22:24:36;;;;;;;;;;;20.00;42.90;;;;;;8387836;28;19912;-59
2024/03/17 22:28:36;;;;;;;;;;;20.00;42.90;;;;;;8388084;28;19944;-59
2024/03/17 22:32:37;;;;;;;;;;;20.00;42.80;;;;;;8388162;28;19920;-59
2024/03/17 22:36:37;;;;;;;;;;;20.00;42.70;;;;;;8412985;27;19926;-59
2024/03/17 22:40:38;;;;;;;;;;;19.90;43.90;;;;;;8397550;27;19912;-59
2024/03/17 22:44:38;;;;;;;;;;;19.70;44.90;;;;;;8389763;27;19920;-59
2024/03/17 22:48:41;;;;;;;;;;;19.70;44.60;;;;;;8354062;28;19923;-59
2024/03/17 22:52:41;;;;;;;;;;;19.70;44.00;;;;;;8387678;28;19916;-59
2024/03/17 22:56:42;;;;;;;;;;;19.80;43.60;;;;;;8369882;28;19917;-59
2024/03/17 23:00:42;;;;;;;;;;;19.80;43.40;;;;;;8369305;28;19913;-58
2024/03/17 23:04:43;;;;;;;;;;;19.90;43.20;;;;;;8387201;28;19912;-59
2024/03/17 23:08:44;;;;;;;;;;;19.90;43.70;;;;;;8387399;28;19913;-59
2024/03/17 23:12:45;;;;;;;;;;;19.90;43.00;;;;;;8369356;28;20011;-59
2024/03/17 23:16:45;;;;;;;;;;;19.90;42.90;;;;;;8387117;28;20277;-59
2024/03/17 23:20:46;;;;;;;;;;;19.90;42.80;;;;;;8387352;28;19950;-60
2024/03/17 23:24:47;;;;;;;;;;;19.80;42.70;;;;;;8387201;28;20562;-58
2024/03/17 23:28:47;;;;;;;;;;;19.70;43.80;;;;;;8387965;28;19919;-58